sensor_id;sensor_type;location;lat;lon;timestamp;P1;durP1;ratioP1;P2;durP2;ratioP2
14007;SDS011;61651;45.508;12.232;2023-02-28T00:02:46;3.83;;;3.47;;
14007;SDS011;61651;45.508;12.232;2023-02-28T00:05:49;4.20;;;3.57;;
14007;SDS011;61651;45.508;12.232;2023-02-28T00:08:51;4.90;;;4.50;;
14007;SDS011;61651;45.508;12.232;2023-02-28T00:11:53;4.20;;;3.80;;
14007;SDS011;61651;45.508;12.232;2023-02-28T00:14:55;3.70;;;3.40;;
14007;SDS011;61651;45.508;12.232;2023-02-28T00:17:59;5.33;;;4.37;;
14007;SDS011;61651;45.508;12.232;2023-02-28T00:21:01;4.17;;;3.60;;
14007;SDS011;61651;45.508;12.232;2023-02-28T00:24:03;4.07;;;3.67;;
14007;SDS011;61651;45.508;12.232;2023-02-28T00:27:06;3.93;;;3.47;;
14007;SDS011;61651;45.508;12.232;2023-02-28T00:30:09;4.37;;;3.97;;
14007;SDS011;61651;45.508;12.232;2023-02-28T00:33:14;4.33;;;3.93;;
14007;SDS011;61651;45.508;12.232;2023-02-28T00:36:16;5.50;;;4.80;;
14007;SDS011;61651;45.508;12.232;2023-02-28T00:39:18;5.00;;;3.90;;
14007;SDS011;61651;45.508;12.232;2023-02-28T00:42:21;4.97;;;4.40;;
14007;SDS011;61651;45.508;12.232;2023-02-28T00:45:23;4.27;;;3.87;;
14007;SDS011;61651;45.508;12.232;2023-02-28T00:48:26;5.67;;;4.43;;
14007;SDS011;61651;45.508;12.232;2023-02-28T00:51:29;4.27;;;3.80;;
14007;SDS011;61651;45.508;12.232;2023-02-28T00:54:31;4.87;;;3.83;;
14007;SDS011;61651;45.508;12.232;2023-02-28T00:57:33;5.60;;;4.17;;
14007;SDS011;61651;45.508;12.232;2023-02-28T01:00:35;5.37;;;4.10;;
14007;SDS011;61651;45.508;12.232;2023-02-28T01:03:38;5.83;;;4.43;;
14007;SDS011;61651;45.508;12.232;2023-02-28T01:06:41;5.27;;;4.33;;
14007;SDS011;61651;45.508;12.232;2023-02-28T01:09:43;7.57;;;3.73;;
14007;SDS011;61651;45.508;12.232;2023-02-28T01:12:45;4.33;;;3.93;;
14007;SDS011;61651;45.508;12.232;2023-02-28T01:15:49;5.93;;;4.60;;
14007;SDS011;61651;45.508;12.232;2023-02-28T01:18:54;5.37;;;4.57;;
14007;SDS011;61651;45.508;12.232;2023-02-28T01:28:06;6.47;;;4.60;;
14007;SDS011;61651;45.508;12.232;2023-02-28T01:31:08;5.10;;;4.60;;
14007;SDS011;61651;45.508;12.232;2023-02-28T01:34:13;5.67;;;4.40;;
14007;SDS011;61651;45.508;12.232;2023-02-28T01:37:15;5.50;;;5.00;;
14007;SDS011;61651;45.508;12.232;2023-02-28T01:40:17;3.67;;;3.37;;
14007;SDS011;61651;45.508;12.232;2023-02-28T01:43:20;4.77;;;4.00;;
14007;SDS011;61651;45.508;12.232;2023-02-28T01:46:25;4.97;;;4.47;;
14007;SDS011;61651;45.508;12.232;2023-02-28T01:49:28;5.37;;;4.30;;
14007;SDS011;61651;45.508;12.232;2023-02-28T01:52:30;5.30;;;4.50;;
14007;SDS011;61651;45.508;12.232;2023-02-28T01:55:33;5.70;;;4.30;;
14007;SDS011;61651;45.508;12.232;2023-02-28T01:58:37;5.20;;;4.03;;
14007;SDS011;61651;45.508;12.232;2023-02-28T02:01:39;4.57;;;4.17;;
14007;SDS011;61651;45.508;12.232;2023-02-28T02:04:46;6.07;;;4.87;;
14007;SDS011;61651;45.508;12.232;2023-02-28T02:07:54;4.97;;;4.37;;
14007;SDS011;61651;45.508;12.232;2023-02-28T02:10:58;5.33;;;4.43;;
14007;SDS011;61651;45.508;12.232;2023-02-28T02:14:11;4.37;;;3.97;;
14007;SDS011;61651;45.508;12.232;2023-02-28T02:17:25;4.50;;;3.43;;
14007;SDS011;61651;45.508;12.232;2023-02-28T02:20:42;5.00;;;4.47;;
14007;SDS011;61651;45.508;12.232;2023-02-28T02:24:13;5.30;;;4.80;;
14007;SDS011;61651;45.508;12.232;2023-02-28T02:27:40;4.57;;;4.00;;
14007;SDS011;61651;45.508;12.232;2023-02-28T02:31:01;4.83;;;4.00;;
14007;SDS011;61651;45.508;12.232;2023-02-28T02:37:50;4.47;;;4.00;;
14007;SDS011;61651;45.508;12.232;2023-02-28T02:40:57;4.37;;;3.87;;
14007;SDS011;61651;45.508;12.232;2023-02-28T02:44:05;5.57;;;4.20;;
14007;SDS011;61651;45.508;12.232;2023-02-28T02:47:14;5.83;;;3.90;;
14007;SDS011;61651;45.508;12.232;2023-02-28T02:50:19;4.80;;;4.03;;
14007;SDS011;61651;45.508;12.232;2023-02-28T02:53:28;5.40;;;4.37;;
14007;SDS011;61651;45.508;12.232;2023-02-28T02:56:33;3.93;;;3.63;;
14007;SDS011;61651;45.508;12.232;2023-02-28T02:59:38;6.17;;;4.37;;
14007;SDS011;61651;45.508;12.232;2023-02-28T03:02:42;4.90;;;4.07;;
14007;SDS011;61651;45.508;12.232;2023-02-28T03:05:47;4.40;;;4.00;;
14007;SDS011;61651;45.508;12.232;2023-02-28T03:08:52;6.10;;;4.13;;
14007;SDS011;61651;45.508;12.232;2023-02-28T03:11:55;5.57;;;4.37;;
14007;SDS011;61651;45.508;12.232;2023-02-28T03:15:00;4.37;;;3.97;;
14007;SDS011;61651;45.508;12.232;2023-02-28T03:18:10;5.10;;;4.60;;
14007;SDS011;61651;45.508;12.232;2023-02-28T03:21:17;4.60;;;3.77;;
14007;SDS011;61651;45.508;12.232;2023-02-28T03:24:27;4.47;;;4.07;;
14007;SDS011;61651;45.508;12.232;2023-02-28T03:27:39;4.13;;;3.73;;
14007;SDS011;61651;45.508;12.232;2023-02-28T03:30:45;4.20;;;3.80;;
14007;SDS011;61651;45.508;12.232;2023-02-28T03:33:55;4.97;;;4.50;;
14007;SDS011;61651;45.508;12.232;2023-02-28T03:37:04;4.20;;;3.87;;
14007;SDS011;61651;45.508;12.232;2023-02-28T03:40:13;4.97;;;4.00;;
14007;SDS011;61651;45.508;12.232;2023-02-28T03:43:19;4.87;;;4.00;;
14007;SDS011;61651;45.508;12.232;2023-02-28T03:46:25;5.50;;;3.97;;
14007;SDS011;61651;45.508;12.232;2023-02-28T03:49:34;5.33;;;3.97;;
14007;SDS011;61651;45.508;12.232;2023-02-28T03:52:38;5.23;;;4.40;;
14007;SDS011;61651;45.508;12.232;2023-02-28T03:55:47;5.47;;;4.17;;
14007;SDS011;61651;45.508;12.232;2023-02-28T03:58:55;5.03;;;4.30;;
14007;SDS011;61651;45.508;12.232;2023-02-28T04:02:00;8.30;;;5.13;;
14007;SDS011;61651;45.508;12.232;2023-02-28T04:05:02;5.00;;;4.50;;
14007;SDS011;61651;45.508;12.232;2023-02-28T04:08:06;5.53;;;4.33;;
14007;SDS011;61651;45.508;12.232;2023-02-28T04:11:15;5.80;;;5.13;;
14007;SDS011;61651;45.508;12.232;2023-02-28T04:14:21;5.70;;;4.60;;
14007;SDS011;61651;45.508;12.232;2023-02-28T04:17:23;5.00;;;4.50;;
14007;SDS011;61651;45.508;12.232;2023-02-28T04:20:25;5.57;;;4.37;;
14007;SDS011;61651;45.508;12.232;2023-02-28T04:23:27;6.43;;;5.03;;
14007;SDS011;61651;45.508;12.232;2023-02-28T04:26:30;5.23;;;4.33;;
14007;SDS011;61651;45.508;12.232;2023-02-28T04:29:33;6.03;;;4.53;;
14007;SDS011;61651;45.508;12.232;2023-02-28T04:32:36;5.07;;;4.37;;
14007;SDS011;61651;45.508;12.232;2023-02-28T04:35:38;6.27;;;4.53;;
14007;SDS011;61651;45.508;12.232;2023-02-28T04:38:40;5.57;;;4.70;;
14007;SDS011;61651;45.508;12.232;2023-02-28T04:41:43;6.27;;;3.73;;
14007;SDS011;61651;45.508;12.232;2023-02-28T04:44:46;5.17;;;4.43;;
14007;SDS011;61651;45.508;12.232;2023-02-28T04:47:48;5.80;;;4.93;;
14007;SDS011;61651;45.508;12.232;2023-02-28T04:50:50;5.43;;;4.60;;
14007;SDS011;61651;45.508;12.232;2023-02-28T04:53:52;7.87;;;4.90;;
14007;SDS011;61651;45.508;12.232;2023-02-28T04:56:56;4.53;;;4.07;;
14007;SDS011;61651;45.508;12.232;2023-02-28T04:59:58;5.03;;;4.40;;
14007;SDS011;61651;45.508;12.232;2023-02-28T05:03:00;6.13;;;4.43;;
14007;SDS011;61651;45.508;12.232;2023-02-28T05:06:02;8.40;;;4.90;;
14007;SDS011;61651;45.508;12.232;2023-02-28T05:09:04;5.47;;;4.93;;
14007;SDS011;61651;45.508;12.232;2023-02-28T05:12:08;6.47;;;4.70;;
14007;SDS011;61651;45.508;12.232;2023-02-28T05:15:10;5.27;;;4.37;;
14007;SDS011;61651;45.508;12.232;2023-02-28T05:18:14;5.20;;;4.57;;
14007;SDS011;61651;45.508;12.232;2023-02-28T05:21:26;5.00;;;3.90;;
14007;SDS011;61651;45.508;12.232;2023-02-28T05:24:30;5.93;;;4.67;;
14007;SDS011;61651;45.508;12.232;2023-02-28T05:27:33;7.10;;;4.97;;
14007;SDS011;61651;45.508;12.232;2023-02-28T05:30:35;6.43;;;4.73;;
14007;SDS011;61651;45.508;12.232;2023-02-28T05:33:37;6.47;;;5.00;;
14007;SDS011;61651;45.508;12.232;2023-02-28T05:36:39;5.47;;;4.73;;
14007;SDS011;61651;45.508;12.232;2023-02-28T05:39:42;5.20;;;4.53;;
14007;SDS011;61651;45.508;12.232;2023-02-28T05:42:45;6.77;;;4.60;;
14007;SDS011;61651;45.508;12.232;2023-02-28T05:45:47;5.40;;;4.73;;
14007;SDS011;61651;45.508;12.232;2023-02-28T05:48:49;8.47;;;5.17;;
14007;SDS011;61651;45.508;12.232;2023-02-28T05:51:51;6.07;;;5.03;;
14007;SDS011;61651;45.508;12.232;2023-02-28T05:54:53;7.53;;;4.37;;
14007;SDS011;61651;45.508;12.232;2023-02-28T05:58:00;7.70;;;4.23;;
14007;SDS011;61651;45.508;12.232;2023-02-28T06:04:23;5.83;;;4.67;;
14007;SDS011;61651;45.508;12.232;2023-02-28T06:07:25;6.60;;;4.87;;
14007;SDS011;61651;45.508;12.232;2023-02-28T06:10:27;8.67;;;4.83;;
14007;SDS011;61651;45.508;12.232;2023-02-28T06:13:30;8.20;;;5.37;;
14007;SDS011;61651;45.508;12.232;2023-02-28T06:16:33;6.03;;;4.90;;
14007;SDS011;61651;45.508;12.232;2023-02-28T06:19:37;4.57;;;4.13;;
14007;SDS011;61651;45.508;12.232;2023-02-28T06:22:40;5.47;;;4.73;;
14007;SDS011;61651;45.508;12.232;2023-02-28T06:25:44;6.80;;;5.03;;
14007;SDS011;61651;45.508;12.232;2023-02-28T06:28:47;5.43;;;4.80;;
14007;SDS011;61651;45.508;12.232;2023-02-28T06:31:50;8.30;;;5.53;;
14007;SDS011;61651;45.508;12.232;2023-02-28T06:34:52;6.07;;;4.90;;
14007;SDS011;61651;45.508;12.232;2023-02-28T06:37:54;6.77;;;5.10;;
14007;SDS011;61651;45.508;12.232;2023-02-28T06:40:56;9.23;;;8.33;;
14007;SDS011;61651;45.508;12.232;2023-02-28T06:44:00;6.33;;;5.37;;
14007;SDS011;61651;45.508;12.232;2023-02-28T06:47:02;6.33;;;4.40;;
14007;SDS011;61651;45.508;12.232;2023-02-28T06:50:06;6.07;;;4.63;;
14007;SDS011;61651;45.508;12.232;2023-02-28T06:53:09;6.83;;;5.37;;
14007;SDS011;61651;45.508;12.232;2023-02-28T06:56:12;7.60;;;5.43;;
14007;SDS011;61651;45.508;12.232;2023-02-28T06:59:17;6.83;;;4.90;;
14007;SDS011;61651;45.508;12.232;2023-02-28T07:02:19;7.67;;;5.47;;
14007;SDS011;61651;45.508;12.232;2023-02-28T07:05:21;6.20;;;5.27;;
14007;SDS011;61651;45.508;12.232;2023-02-28T07:08:23;5.87;;;4.70;;
14007;SDS011;61651;45.508;12.232;2023-02-28T07:11:30;5.90;;;5.30;;
14007;SDS011;61651;45.508;12.232;2023-02-28T07:14:33;7.50;;;5.00;;
14007;SDS011;61651;45.508;12.232;2023-02-28T07:17:43;6.30;;;5.53;;
14007;SDS011;61651;45.508;12.232;2023-02-28T07:20:45;6.07;;;5.30;;
14007;SDS011;61651;45.508;12.232;2023-02-28T07:23:47;6.50;;;4.87;;
14007;SDS011;61651;45.508;12.232;2023-02-28T07:26:49;6.60;;;4.80;;
14007;SDS011;61651;45.508;12.232;2023-02-28T07:29:52;6.57;;;4.57;;
14007;SDS011;61651;45.508;12.232;2023-02-28T07:32:54;5.40;;;4.77;;
14007;SDS011;61651;45.508;12.232;2023-02-28T07:35:59;5.73;;;4.77;;
14007;SDS011;61651;45.508;12.232;2023-02-28T07:39:02;6.57;;;4.97;;
14007;SDS011;61651;45.508;12.232;2023-02-28T07:42:04;7.47;;;5.40;;
14007;SDS011;61651;45.508;12.232;2023-02-28T07:45:10;6.20;;;4.87;;
14007;SDS011;61651;45.508;12.232;2023-02-28T07:48:12;6.87;;;5.43;;
14007;SDS011;61651;45.508;12.232;2023-02-28T07:51:14;6.33;;;5.30;;
14007;SDS011;61651;45.508;12.232;2023-02-28T07:54:16;6.90;;;5.50;;
14007;SDS011;61651;45.508;12.232;2023-02-28T07:57:19;6.83;;;4.83;;
14007;SDS011;61651;45.508;12.232;2023-02-28T08:00:23;9.20;;;5.73;;
14007;SDS011;61651;45.508;12.232;2023-02-28T08:03:25;6.47;;;4.77;;
14007;SDS011;61651;45.508;12.232;2023-02-28T08:06:28;8.47;;;5.43;;
14007;SDS011;61651;45.508;12.232;2023-02-28T08:09:30;5.57;;;5.03;;
14007;SDS011;61651;45.508;12.232;2023-02-28T08:12:32;5.97;;;4.83;;
14007;SDS011;61651;45.508;12.232;2023-02-28T08:15:36;7.83;;;5.03;;
14007;SDS011;61651;45.508;12.232;2023-02-28T08:18:38;6.83;;;5.67;;
14007;SDS011;61651;45.508;12.232;2023-02-28T08:21:40;5.63;;;5.07;;
14007;SDS011;61651;45.508;12.232;2023-02-28T08:24:42;6.03;;;5.07;;
14007;SDS011;61651;45.508;12.232;2023-02-28T08:27:45;5.90;;;5.00;;
14007;SDS011;61651;45.508;12.232;2023-02-28T08:30:48;7.13;;;5.13;;
14007;SDS011;61651;45.508;12.232;2023-02-28T08:33:51;6.67;;;5.20;;
14007;SDS011;61651;45.508;12.232;2023-02-28T08:36:55;5.57;;;4.90;;
14007;SDS011;61651;45.508;12.232;2023-02-28T08:39:57;5.57;;;4.90;;
14007;SDS011;61651;45.508;12.232;2023-02-28T08:42:59;6.03;;;5.30;;
14007;SDS011;61651;45.508;12.232;2023-02-28T08:46:03;8.53;;;4.90;;
14007;SDS011;61651;45.508;12.232;2023-02-28T08:49:05;6.50;;;5.17;;
14007;SDS011;61651;45.508;12.232;2023-02-28T08:52:07;5.67;;;5.07;;
14007;SDS011;61651;45.508;12.232;2023-02-28T08:55:09;5.73;;;4.70;;
14007;SDS011;61651;45.508;12.232;2023-02-28T08:58:11;7.13;;;4.53;;
14007;SDS011;61651;45.508;12.232;2023-02-28T09:01:15;5.30;;;4.80;;
14007;SDS011;61651;45.508;12.232;2023-02-28T09:04:18;5.77;;;5.17;;
14007;SDS011;61651;45.508;12.232;2023-02-28T09:07:20;6.13;;;4.63;;
14007;SDS011;61651;45.508;12.232;2023-02-28T09:10:22;5.57;;;4.37;;
14007;SDS011;61651;45.508;12.232;2023-02-28T09:13:25;6.77;;;4.60;;
14007;SDS011;61651;45.508;12.232;2023-02-28T09:16:29;4.63;;;4.13;;
14007;SDS011;61651;45.508;12.232;2023-02-28T09:19:31;4.57;;;4.17;;
14007;SDS011;61651;45.508;12.232;2023-02-28T09:22:33;5.78;;;4.75;;
14007;SDS011;61651;45.508;12.232;2023-02-28T09:25:36;5.07;;;4.57;;
14007;SDS011;61651;45.508;12.232;2023-02-28T09:28:38;6.57;;;4.97;;
14007;SDS011;61651;45.508;12.232;2023-02-28T09:31:41;7.33;;;4.57;;
14007;SDS011;61651;45.508;12.232;2023-02-28T09:34:43;5.07;;;3.77;;
14007;SDS011;61651;45.508;12.232;2023-02-28T09:37:45;5.53;;;4.17;;
14007;SDS011;61651;45.508;12.232;2023-02-28T09:40:49;5.50;;;4.50;;
14007;SDS011;61651;45.508;12.232;2023-02-28T09:43:53;6.93;;;4.70;;
14007;SDS011;61651;45.508;12.232;2023-02-28T09:46:59;7.37;;;4.57;;
14007;SDS011;61651;45.508;12.232;2023-02-28T09:50:08;6.07;;;3.83;;
14007;SDS011;61651;45.508;12.232;2023-02-28T09:53:19;5.57;;;4.67;;
14007;SDS011;61651;45.508;12.232;2023-02-28T09:56:27;5.00;;;4.50;;
14007;SDS011;61651;45.508;12.232;2023-02-28T09:59:36;5.87;;;4.10;;
14007;SDS011;61651;45.508;12.232;2023-02-28T10:03:02;5.10;;;4.27;;
14007;SDS011;61651;45.508;12.232;2023-02-28T10:06:13;7.63;;;4.70;;
14007;SDS011;61651;45.508;12.232;2023-02-28T10:09:19;4.60;;;4.03;;
14007;SDS011;61651;45.508;12.232;2023-02-28T10:12:24;5.33;;;4.83;;
14007;SDS011;61651;45.508;12.232;2023-02-28T10:15:29;5.47;;;4.17;;
14007;SDS011;61651;45.508;12.232;2023-02-28T10:18:37;6.37;;;4.80;;
14007;SDS011;61651;45.508;12.232;2023-02-28T10:21:44;6.03;;;5.40;;
14007;SDS011;61651;45.508;12.232;2023-02-28T10:24:51;4.90;;;4.20;;
14007;SDS011;61651;45.508;12.232;2023-02-28T10:27:54;5.13;;;4.30;;
14007;SDS011;61651;45.508;12.232;2023-02-28T10:31:02;5.60;;;4.67;;
14007;SDS011;61651;45.508;12.232;2023-02-28T10:34:05;6.13;;;5.00;;
14007;SDS011;61651;45.508;12.232;2023-02-28T10:37:09;6.18;;;4.80;;
14007;SDS011;61651;45.508;12.232;2023-02-28T10:40:25;7.07;;;4.83;;
14007;SDS011;61651;45.508;12.232;2023-02-28T10:43:29;6.17;;;4.83;;
14007;SDS011;61651;45.508;12.232;2023-02-28T10:46:31;6.30;;;4.97;;
14007;SDS011;61651;45.508;12.232;2023-02-28T10:49:36;7.40;;;5.13;;
14007;SDS011;61651;45.508;12.232;2023-02-28T10:52:47;5.60;;;4.50;;
14007;SDS011;61651;45.508;12.232;2023-02-28T10:55:55;5.40;;;4.73;;
14007;SDS011;61651;45.508;12.232;2023-02-28T10:59:00;5.90;;;4.73;;
14007;SDS011;61651;45.508;12.232;2023-02-28T11:02:14;5.90;;;4.80;;
14007;SDS011;61651;45.508;12.232;2023-02-28T11:05:33;6.13;;;4.80;;
14007;SDS011;61651;45.508;12.232;2023-02-28T11:08:43;6.47;;;4.93;;
14007;SDS011;61651;45.508;12.232;2023-02-28T11:11:47;5.27;;;4.20;;
14007;SDS011;61651;45.508;12.232;2023-02-28T11:14:51;7.60;;;5.10;;
14007;SDS011;61651;45.508;12.232;2023-02-28T11:17:56;5.97;;;5.10;;
14007;SDS011;61651;45.508;12.232;2023-02-28T11:21:02;6.27;;;4.87;;
14007;SDS011;61651;45.508;12.232;2023-02-28T11:24:05;6.73;;;5.10;;
14007;SDS011;61651;45.508;12.232;2023-02-28T11:27:25;6.80;;;5.20;;
14007;SDS011;61651;45.508;12.232;2023-02-28T11:30:42;8.53;;;5.13;;
14007;SDS011;61651;45.508;12.232;2023-02-28T11:33:45;6.17;;;5.10;;
14007;SDS011;61651;45.508;12.232;2023-02-28T11:36:51;6.23;;;4.93;;
14007;SDS011;61651;45.508;12.232;2023-02-28T11:39:56;8.93;;;4.70;;
14007;SDS011;61651;45.508;12.232;2023-02-28T11:43:01;7.33;;;5.47;;
14007;SDS011;61651;45.508;12.232;2023-02-28T11:46:18;7.70;;;5.67;;
14007;SDS011;61651;45.508;12.232;2023-02-28T11:49:30;8.07;;;5.43;;
14007;SDS011;61651;45.508;12.232;2023-02-28T11:52:39;5.23;;;4.73;;
14007;SDS011;61651;45.508;12.232;2023-02-28T11:55:51;5.07;;;4.40;;
14007;SDS011;61651;45.508;12.232;2023-02-28T11:59:01;6.13;;;5.07;;
14007;SDS011;61651;45.508;12.232;2023-02-28T12:02:23;8.33;;;5.13;;
14007;SDS011;61651;45.508;12.232;2023-02-28T12:05:29;5.40;;;4.90;;
14007;SDS011;61651;45.508;12.232;2023-02-28T12:08:47;6.40;;;5.32;;
14007;SDS011;61651;45.508;12.232;2023-02-28T12:11:57;6.27;;;4.93;;
14007;SDS011;61651;45.508;12.232;2023-02-28T12:18:43;7.07;;;4.53;;
14007;SDS011;61651;45.508;12.232;2023-02-28T12:22:05;7.67;;;4.70;;
14007;SDS011;61651;45.508;12.232;2023-02-28T12:28:50;6.97;;;4.73;;
14007;SDS011;61651;45.508;12.232;2023-02-28T12:31:56;6.07;;;5.13;;
14007;SDS011;61651;45.508;12.232;2023-02-28T12:35:04;5.30;;;4.40;;
14007;SDS011;61651;45.508;12.232;2023-02-28T12:38:14;5.97;;;5.38;;
14007;SDS011;61651;45.508;12.232;2023-02-28T12:41:22;5.33;;;4.83;;
14007;SDS011;61651;45.508;12.232;2023-02-28T12:44:30;6.30;;;4.40;;
14007;SDS011;61651;45.508;12.232;2023-02-28T12:47:35;5.80;;;4.90;;
14007;SDS011;61651;45.508;12.232;2023-02-28T12:50:39;8.37;;;5.40;;
14007;SDS011;61651;45.508;12.232;2023-02-28T12:53:49;5.00;;;4.43;;
14007;SDS011;61651;45.508;12.232;2023-02-28T12:57:02;11.00;;;6.63;;
14007;SDS011;61651;45.508;12.232;2023-02-28T13:00:12;5.40;;;4.40;;
14007;SDS011;61651;45.508;12.232;2023-02-28T13:03:28;5.40;;;4.33;;
14007;SDS011;61651;45.508;12.232;2023-02-28T13:07:02;5.67;;;4.60;;
14007;SDS011;61651;45.508;12.232;2023-02-28T13:10:24;5.50;;;4.60;;
14007;SDS011;61651;45.508;12.232;2023-02-28T13:13:41;5.23;;;3.73;;
14007;SDS011;61651;45.508;12.232;2023-02-28T13:20:16;7.60;;;3.87;;
14007;SDS011;61651;45.508;12.232;2023-02-28T13:23:39;6.38;;;4.93;;
14007;SDS011;61651;45.508;12.232;2023-02-28T13:27:22;13.13;;;5.07;;
14007;SDS011;61651;45.508;12.232;2023-02-28T13:34:14;6.53;;;4.38;;
14007;SDS011;61651;45.508;12.232;2023-02-28T13:37:33;7.22;;;4.22;;
14007;SDS011;61651;45.508;12.232;2023-02-28T13:40:38;5.30;;;4.28;;
14007;SDS011;61651;45.508;12.232;2023-02-28T13:43:59;7.30;;;4.70;;
14007;SDS011;61651;45.508;12.232;2023-02-28T13:50:36;5.15;;;3.67;;
14007;SDS011;61651;45.508;12.232;2023-02-28T13:53:48;4.95;;;3.65;;
14007;SDS011;61651;45.508;12.232;2023-02-28T13:57:05;6.90;;;4.28;;
14007;SDS011;61651;45.508;12.232;2023-02-28T14:00:18;6.32;;;4.95;;
14007;SDS011;61651;45.508;12.232;2023-02-28T14:06:54;7.03;;;3.70;;
14007;SDS011;61651;45.508;12.232;2023-02-28T14:09:59;6.25;;;4.40;;
14007;SDS011;61651;45.508;12.232;2023-02-28T14:13:13;5.75;;;4.13;;
14007;SDS011;61651;45.508;12.232;2023-02-28T14:20:21;8.27;;;5.18;;
14007;SDS011;61651;45.508;12.232;2023-02-28T14:23:31;6.47;;;4.20;;
14007;SDS011;61651;45.508;12.232;2023-02-28T14:26:51;7.43;;;3.90;;
14007;SDS011;61651;45.508;12.232;2023-02-28T14:30:11;9.45;;;4.40;;
14007;SDS011;61651;45.508;12.232;2023-02-28T14:33:40;7.65;;;4.70;;
14007;SDS011;61651;45.508;12.232;2023-02-28T14:36:53;9.75;;;5.28;;
14007;SDS011;61651;45.508;12.232;2023-02-28T14:39:59;8.45;;;4.10;;
14007;SDS011;61651;45.508;12.232;2023-02-28T14:43:05;9.43;;;4.95;;
14007;SDS011;61651;45.508;12.232;2023-02-28T14:46:19;8.32;;;4.50;;
14007;SDS011;61651;45.508;12.232;2023-02-28T14:49:26;5.57;;;3.75;;
14007;SDS011;61651;45.508;12.232;2023-02-28T14:52:31;7.13;;;4.65;;
14007;SDS011;61651;45.508;12.232;2023-02-28T14:55:34;3.95;;;3.55;;
14007;SDS011;61651;45.508;12.232;2023-02-28T14:58:37;5.53;;;4.35;;
14007;SDS011;61651;45.508;12.232;2023-02-28T15:01:39;6.78;;;3.83;;
14007;SDS011;61651;45.508;12.232;2023-02-28T15:04:41;8.20;;;4.68;;
14007;SDS011;61651;45.508;12.232;2023-02-28T15:07:45;5.55;;;4.30;;
14007;SDS011;61651;45.508;12.232;2023-02-28T15:10:52;9.50;;;5.03;;
14007;SDS011;61651;45.508;12.232;2023-02-28T15:13:56;8.43;;;4.50;;
14007;SDS011;61651;45.508;12.232;2023-02-28T15:16:59;4.57;;;4.13;;
14007;SDS011;61651;45.508;12.232;2023-02-28T15:20:04;6.93;;;4.57;;
14007;SDS011;61651;45.508;12.232;2023-02-28T15:23:07;7.35;;;4.40;;
14007;SDS011;61651;45.508;12.232;2023-02-28T15:26:12;7.03;;;4.25;;
14007;SDS011;61651;45.508;12.232;2023-02-28T15:29:18;8.07;;;4.75;;
14007;SDS011;61651;45.508;12.232;2023-02-28T15:32:27;7.50;;;4.55;;
14007;SDS011;61651;45.508;12.232;2023-02-28T15:35:31;6.63;;;4.38;;
14007;SDS011;61651;45.508;12.232;2023-02-28T15:38:35;6.85;;;4.32;;
14007;SDS011;61651;45.508;12.232;2023-02-28T15:41:38;7.45;;;4.45;;
14007;SDS011;61651;45.508;12.232;2023-02-28T15:44:40;8.60;;;4.93;;
14007;SDS011;61651;45.508;12.232;2023-02-28T15:47:44;9.15;;;4.88;;
14007;SDS011;61651;45.508;12.232;2023-02-28T15:50:49;9.13;;;4.90;;
14007;SDS011;61651;45.508;12.232;2023-02-28T15:53:56;5.60;;;4.00;;
14007;SDS011;61651;45.508;12.232;2023-02-28T15:57:01;9.07;;;4.47;;
14007;SDS011;61651;45.508;12.232;2023-02-28T16:00:08;7.05;;;4.90;;
14007;SDS011;61651;45.508;12.232;2023-02-28T16:03:24;8.82;;;5.05;;
14007;SDS011;61651;45.508;12.232;2023-02-28T16:06:32;5.15;;;4.30;;
14007;SDS011;61651;45.508;12.232;2023-02-28T16:09:38;7.22;;;5.10;;
14007;SDS011;61651;45.508;12.232;2023-02-28T16:12:42;6.45;;;4.75;;
14007;SDS011;61651;45.508;12.232;2023-02-28T16:15:44;7.53;;;4.78;;
14007;SDS011;61651;45.508;12.232;2023-02-28T16:18:46;7.38;;;5.22;;
14007;SDS011;61651;45.508;12.232;2023-02-28T16:21:48;8.98;;;4.80;;
14007;SDS011;61651;45.508;12.232;2023-02-28T16:24:52;8.75;;;5.43;;
14007;SDS011;61651;45.508;12.232;2023-02-28T16:27:54;7.78;;;4.82;;
14007;SDS011;61651;45.508;12.232;2023-02-28T16:30:57;10.43;;;5.53;;
14007;SDS011;61651;45.508;12.232;2023-02-28T16:34:02;6.37;;;4.83;;
14007;SDS011;61651;45.508;12.232;2023-02-28T16:37:05;7.30;;;4.87;;
14007;SDS011;61651;45.508;12.232;2023-02-28T16:40:15;7.73;;;5.23;;
14007;SDS011;61651;45.508;12.232;2023-02-28T16:43:22;7.43;;;5.30;;
14007;SDS011;61651;45.508;12.232;2023-02-28T16:46:27;7.67;;;5.10;;
14007;SDS011;61651;45.508;12.232;2023-02-28T16:49:34;7.27;;;5.30;;
14007;SDS011;61651;45.508;12.232;2023-02-28T16:52:36;7.73;;;5.40;;
14007;SDS011;61651;45.508;12.232;2023-02-28T16:55:40;7.97;;;5.70;;
14007;SDS011;61651;45.508;12.232;2023-02-28T16:58:42;9.67;;;6.00;;
14007;SDS011;61651;45.508;12.232;2023-02-28T17:01:44;6.57;;;5.10;;
14007;SDS011;61651;45.508;12.232;2023-02-28T17:04:46;8.03;;;5.53;;
14007;SDS011;61651;45.508;12.232;2023-02-28T17:07:48;7.10;;;5.30;;
14007;SDS011;61651;45.508;12.232;2023-02-28T17:10:52;6.63;;;4.97;;
14007;SDS011;61651;45.508;12.232;2023-02-28T17:13:55;9.03;;;5.80;;
14007;SDS011;61651;45.508;12.232;2023-02-28T17:16:57;8.27;;;6.17;;
14007;SDS011;61651;45.508;12.232;2023-02-28T17:19:59;6.80;;;6.10;;
14007;SDS011;61651;45.508;12.232;2023-02-28T17:23:01;7.47;;;5.57;;
14007;SDS011;61651;45.508;12.232;2023-02-28T17:26:04;8.53;;;5.97;;
14007;SDS011;61651;45.508;12.232;2023-02-28T17:29:11;6.60;;;5.97;;
14007;SDS011;61651;45.508;12.232;2023-02-28T17:32:16;7.50;;;5.37;;
14007;SDS011;61651;45.508;12.232;2023-02-28T17:35:19;7.00;;;6.30;;
14007;SDS011;61651;45.508;12.232;2023-02-28T17:38:21;8.00;;;6.00;;
14007;SDS011;61651;45.508;12.232;2023-02-28T17:41:25;6.77;;;6.03;;
14007;SDS011;61651;45.508;12.232;2023-02-28T17:44:29;7.87;;;6.23;;
14007;SDS011;61651;45.508;12.232;2023-02-28T17:47:31;9.17;;;6.93;;
14007;SDS011;61651;45.508;12.232;2023-02-28T17:50:33;8.13;;;6.97;;
14007;SDS011;61651;45.508;12.232;2023-02-28T17:53:35;8.33;;;6.43;;
14007;SDS011;61651;45.508;12.232;2023-02-28T17:56:39;7.77;;;5.90;;
14007;SDS011;61651;45.508;12.232;2023-02-28T17:59:43;9.60;;;6.70;;
14007;SDS011;61651;45.508;12.232;2023-02-28T18:02:45;9.40;;;7.27;;
14007;SDS011;61651;45.508;12.232;2023-02-28T18:05:47;8.10;;;7.00;;
14007;SDS011;61651;45.508;12.232;2023-02-28T18:08:49;9.53;;;6.93;;
14007;SDS011;61651;45.508;12.232;2023-02-28T18:11:54;9.47;;;6.57;;
14007;SDS011;61651;45.508;12.232;2023-02-28T18:14:56;8.30;;;6.13;;
14007;SDS011;61651;45.508;12.232;2023-02-28T18:17:58;8.53;;;6.60;;
14007;SDS011;61651;45.508;12.232;2023-02-28T18:21:03;9.30;;;7.47;;
14007;SDS011;61651;45.508;12.232;2023-02-28T18:24:05;9.53;;;6.90;;
14007;SDS011;61651;45.508;12.232;2023-02-28T18:27:09;7.87;;;6.93;;
14007;SDS011;61651;45.508;12.232;2023-02-28T18:30:11;8.80;;;6.80;;
14007;SDS011;61651;45.508;12.232;2023-02-28T18:33:14;8.77;;;6.70;;
14007;SDS011;61651;45.508;12.232;2023-02-28T18:36:16;9.53;;;6.80;;
14007;SDS011;61651;45.508;12.232;2023-02-28T18:39:19;8.73;;;7.10;;
14007;SDS011;61651;45.508;12.232;2023-02-28T18:42:23;8.43;;;6.97;;
14007;SDS011;61651;45.508;12.232;2023-02-28T18:45:25;8.17;;;7.37;;
14007;SDS011;61651;45.508;12.232;2023-02-28T18:48:28;9.00;;;6.73;;
14007;SDS011;61651;45.508;12.232;2023-02-28T18:51:30;8.53;;;7.27;;
14007;SDS011;61651;45.508;12.232;2023-02-28T18:54:32;9.40;;;8.03;;
14007;SDS011;61651;45.508;12.232;2023-02-28T18:57:37;8.87;;;7.13;;
14007;SDS011;61651;45.508;12.232;2023-02-28T19:00:39;16.97;;;11.60;;